createdAt,value
2023-04-18T00:01:08.108Z,93.90
2023-04-18T00:06:10.797Z,94.10
2023-04-18T00:11:13.305Z,94.20
2023-04-18T00:16:16.067Z,94.40
2023-04-18T00:21:18.885Z,94.30
2023-04-18T00:26:21.347Z,94.50
2023-04-18T00:31:24.389Z,94.60
2023-04-18T00:36:28.232Z,94.80
2023-04-18T00:41:31.352Z,94.90
2023-04-18T00:46:33.960Z,95.00
2023-04-18T00:51:36.661Z,95.10
2023-04-18T00:56:39.511Z,95.30
2023-04-18T01:01:43.303Z,95.70
2023-04-18T01:06:46.076Z,96.00
2023-04-18T01:11:48.512Z,96.50
2023-04-18T01:16:52.015Z,96.70
2023-04-18T01:21:55.056Z,96.70
2023-04-18T01:26:58.825Z,97.10
2023-04-18T01:32:02.745Z,97.00
2023-04-18T01:37:05.668Z,97.20
2023-04-18T01:42:08.701Z,97.50
2023-04-18T01:47:13.160Z,97.70
2023-04-18T01:52:16.195Z,97.80
2023-04-18T01:57:18.683Z,98.00
2023-04-18T02:02:21.328Z,98.70
2023-04-18T02:07:23.987Z,99.80
2023-04-18T02:12:26.626Z,99.90
2023-04-18T02:17:29.489Z,99.90
2023-04-18T02:22:32.023Z,99.90
2023-04-18T02:27:36.523Z,99.90
2023-04-18T02:32:39.024Z,99.90
2023-04-18T02:37:41.891Z,99.90
2023-04-18T02:42:44.388Z,99.90
2023-04-18T02:47:55.385Z,99.90
2023-04-18T02:52:58.795Z,99.90
2023-04-18T02:58:09.490Z,99.90
2023-04-18T03:03:36.142Z,99.90
2023-04-18T03:08:59.322Z,99.90
2023-04-18T03:14:01.868Z,99.90
2023-04-18T03:19:12.037Z,99.90
2023-04-18T03:24:15.000Z,99.90
2023-04-18T03:29:20.791Z,99.90
2023-04-18T03:34:23.517Z,99.90
2023-04-18T03:39:27.703Z,99.90
2023-04-18T03:44:30.544Z,99.90
2023-04-18T03:49:33.266Z,99.90
2023-04-18T03:54:36.165Z,99.90
2023-04-18T03:59:40.132Z,99.90
2023-04-18T04:04:43.246Z,99.90
2023-04-18T04:09:46.679Z,99.90
2023-04-18T04:14:49.256Z,99.90
2023-04-18T04:19:52.403Z,99.90
2023-04-18T04:24:57.866Z,99.90
2023-04-18T04:30:09.328Z,99.90
2023-04-18T04:35:13.847Z,99.90
2023-04-18T04:40:17.890Z,99.90
2023-04-18T04:45:26.450Z,99.90
2023-04-18T04:50:29.067Z,99.90
2023-04-18T04:55:32.789Z,99.90
2023-04-18T05:00:36.107Z,99.90
2023-04-18T05:05:38.653Z,99.90
2023-04-18T05:10:41.616Z,99.90
2023-04-18T05:15:44.334Z,99.90
2023-04-18T05:20:46.790Z,99.90
2023-04-18T05:25:49.362Z,99.90
2023-04-18T05:30:52.145Z,99.90
2023-04-18T05:35:55.183Z,99.90
2023-04-18T05:41:00.847Z,99.90
2023-04-18T05:46:03.343Z,99.90
2023-04-18T05:51:06.022Z,99.90
2023-04-18T05:56:08.499Z,99.90
2023-04-18T06:01:11.274Z,99.90
2023-04-18T06:06:13.973Z,99.90
2023-04-18T06:11:16.514Z,99.90
2023-04-18T06:16:19.178Z,99.90
2023-04-18T06:21:22.401Z,99.90
2023-04-18T06:26:24.865Z,99.90
2023-04-18T06:31:27.526Z,99.90
2023-04-18T06:36:30.066Z,99.90
2023-04-18T06:41:32.824Z,99.90
2023-04-18T06:46:35.515Z,99.90
2023-04-18T06:51:38.042Z,99.30
2023-04-18T06:56:40.737Z,98.70
2023-04-18T07:01:46.739Z,97.20
2023-04-18T07:06:49.245Z,96.30
2023-04-18T07:11:52.735Z,96.20
2023-04-18T07:16:55.323Z,96.60
2023-04-18T07:21:57.916Z,95.50
2023-04-18T07:27:01.474Z,94.90
2023-04-18T07:32:04.878Z,94.70
2023-04-18T07:37:08.809Z,94.80
2023-04-18T07:42:11.960Z,94.30
2023-04-18T07:47:14.442Z,94.10
2023-04-18T07:52:17.061Z,94.20
2023-04-18T07:57:19.545Z,94.20
2023-04-18T08:02:22.304Z,93.00
2023-04-18T08:07:24.897Z,92.70
2023-04-18T08:12:27.359Z,92.00
2023-04-18T08:17:30.078Z,91.30
2023-04-18T08:22:33.005Z,91.30
2023-04-18T08:27:35.571Z,90.40
2023-04-18T08:32:38.084Z,90.00
2023-04-18T08:37:40.735Z,88.80
2023-04-18T08:42:45.425Z,86.30
2023-04-18T08:47:48.384Z,87.00
2023-04-18T08:52:52.239Z,84.90
2023-04-18T08:57:55.978Z,84.50
2023-04-18T09:02:59.571Z,78.80
2023-04-18T09:08:22.383Z,77.20
2023-04-18T09:13:47.197Z,73.90
2023-04-18T09:19:12.943Z,73.60
2023-04-18T09:24:21.123Z,72.30
2023-04-18T09:29:42.202Z,71.60
2023-04-18T09:34:45.128Z,71.50
2023-04-18T09:39:47.661Z,71.10
2023-04-18T09:45:08.949Z,71.60
2023-04-18T09:50:11.957Z,71.20
2023-04-18T09:55:19.229Z,71.40
2023-04-18T10:00:27.439Z,72.30
2023-04-18T10:05:36.312Z,72.60
2023-04-18T10:10:39.388Z,73.60
2023-04-18T10:15:44.309Z,73.40
2023-04-18T10:20:48.238Z,72.60
2023-04-18T10:25:51.412Z,72.30
2023-04-18T10:30:56.395Z,72.00
2023-04-18T10:36:17.187Z,71.30
2023-04-18T10:41:22.684Z,71.20
2023-04-18T10:46:32.281Z,72.20
2023-04-18T10:51:35.880Z,71.30
2023-04-18T10:56:39.531Z,70.40
2023-04-18T11:01:44.609Z,72.00
2023-04-18T11:06:50.664Z,72.70
2023-04-18T11:12:08.813Z,73.10
2023-04-18T11:17:24.823Z,73.10
2023-04-18T11:22:32.498Z,73.20
2023-04-18T11:27:35.685Z,73.20
2023-04-18T11:32:38.611Z,73.80
2023-04-18T11:37:42.580Z,73.40
2023-04-18T11:42:45.394Z,72.40
2023-04-18T11:47:52.487Z,71.10
2023-04-18T11:52:56.347Z,70.40
2023-04-18T11:58:00.623Z,70.10
2023-04-18T12:03:15.740Z,70.20
2023-04-18T12:08:21.597Z,68.70
2023-04-18T12:13:31.717Z,67.30
2023-04-18T12:19:05.562Z,67.90
2023-04-18T12:24:18.361Z,66.80
2023-04-18T12:29:20.995Z,64.10
2023-04-18T12:34:23.564Z,63.20
2023-04-18T12:39:26.114Z,59.80
2023-04-18T12:44:29.047Z,60.30
2023-04-18T12:49:32.171Z,57.80
2023-04-18T12:54:36.740Z,57.70
2023-04-18T12:59:40.402Z,57.00
2023-04-18T13:04:43.547Z,55.80
2023-04-18T13:09:46.605Z,56.90
2023-04-18T13:14:49.084Z,53.80
2023-04-18T13:19:52.004Z,54.60
2023-04-18T13:24:54.592Z,54.40
2023-04-18T13:29:57.469Z,56.40
2023-04-18T13:34:59.909Z,54.20
2023-04-18T13:40:05.392Z,52.90
2023-04-18T13:45:08.167Z,53.30
2023-04-18T13:50:13.547Z,53.10
2023-04-18T13:55:16.216Z,52.40
2023-04-18T14:00:19.440Z,53.50
2023-04-18T14:05:21.876Z,55.00
2023-04-18T14:10:24.618Z,57.00
2023-04-18T14:21:17.855Z,59.30
2023-04-18T14:26:21.072Z,59.90
2023-04-18T14:31:23.559Z,59.50
2023-04-18T14:36:27.236Z,59.80
2023-04-18T14:41:29.793Z,59.10
2023-04-18T14:46:32.360Z,59.60
2023-04-18T14:51:35.396Z,58.90
2023-04-18T14:56:37.938Z,57.90
2023-04-18T15:01:41.607Z,56.80
2023-04-18T15:06:44.186Z,54.20
2023-04-18T15:11:46.711Z,54.20
2023-04-18T15:16:49.876Z,53.50
2023-04-18T15:21:52.474Z,52.50
2023-04-18T15:26:54.945Z,46.30
2023-04-18T15:31:57.403Z,40.50
2023-04-18T15:36:59.898Z,44.40
2023-04-18T15:42:02.398Z,49.30
2023-04-18T15:47:04.875Z,48.80
2023-04-18T15:52:07.509Z,45.80
2023-04-18T15:57:11.042Z,45.80
2023-04-18T16:02:13.515Z,47.00
2023-04-18T16:07:16.671Z,47.50
2023-04-18T16:12:19.127Z,47.40
2023-04-18T16:17:21.596Z,50.80
2023-04-18T16:22:24.021Z,53.90
2023-04-18T16:27:26.614Z,56.00
2023-04-18T16:32:29.167Z,58.00
2023-04-18T16:37:31.881Z,57.50
2023-04-18T16:42:34.338Z,57.70
2023-04-18T16:47:36.889Z,56.20
2023-04-18T16:52:40.093Z,57.00
2023-04-18T16:57:42.643Z,58.00
2023-04-18T17:02:45.372Z,59.10
2023-04-18T17:07:49.841Z,59.20
2023-04-18T17:12:53.052Z,60.90
2023-04-18T17:18:00.333Z,61.10
2023-04-18T17:23:03.019Z,61.90
2023-04-18T17:28:05.678Z,62.60
2023-04-18T17:33:09.794Z,64.30
2023-04-18T17:38:12.705Z,64.80
2023-04-18T17:43:15.135Z,66.70
2023-04-18T17:48:17.586Z,67.30
2023-04-18T17:53:20.234Z,67.50
2023-04-18T17:58:22.724Z,68.10
2023-04-18T18:03:25.535Z,67.80
2023-04-18T18:08:28.260Z,67.80
2023-04-18T18:13:30.805Z,68.70
2023-04-18T18:18:33.305Z,69.80
2023-04-18T18:23:35.903Z,69.80
2023-04-18T18:28:38.418Z,69.70
2023-04-18T18:33:40.849Z,70.90
2023-04-18T18:38:43.401Z,70.90
2023-04-18T18:43:45.876Z,71.80
2023-04-18T18:48:49.791Z,72.00
2023-04-18T18:53:52.777Z,72.00
2023-04-18T18:58:58.253Z,71.70
2023-04-18T19:04:01.037Z,72.10
2023-04-18T19:09:05.237Z,73.70
2023-04-18T19:14:07.708Z,73.80
2023-04-18T19:19:10.368Z,74.30
2023-04-18T19:24:13.378Z,74.80
2023-04-18T19:29:17.689Z,75.10
2023-04-18T19:34:21.888Z,75.60
2023-04-18T19:39:24.341Z,76.40
2023-04-18T19:44:26.817Z,76.90
2023-04-18T19:49:29.344Z,76.90
2023-04-18T19:54:33.801Z,76.60
2023-04-18T19:59:36.535Z,77.60
2023-04-18T20:04:40.701Z,78.60
2023-04-18T20:09:43.382Z,79.90
2023-04-18T20:14:45.846Z,80.60
2023-04-18T20:19:49.860Z,81.20
2023-04-18T20:24:53.033Z,82.00
2023-04-18T20:29:57.261Z,82.20
2023-04-18T20:35:00.080Z,82.10
2023-04-18T20:40:08.051Z,81.60
2023-04-18T20:45:11.246Z,82.20
2023-04-18T20:50:16.165Z,81.90
2023-04-18T20:55:18.786Z,81.00
2023-04-18T21:00:21.293Z,81.50
2023-04-18T21:05:23.864Z,81.80
2023-04-18T21:10:26.969Z,82.40
2023-04-18T21:15:29.473Z,82.70
2023-04-18T21:20:31.968Z,82.70
2023-04-18T21:25:34.467Z,81.40
2023-04-18T21:30:37.033Z,79.80
2023-04-18T21:35:39.565Z,79.40
2023-04-18T21:40:42.053Z,79.60
2023-04-18T21:45:46.363Z,78.60
2023-04-18T21:50:57.108Z,76.60
2023-04-18T21:55:59.702Z,74.60
2023-04-18T22:01:02.696Z,68.10
2023-04-18T22:06:05.612Z,68.70
2023-04-18T22:11:11.563Z,71.70
2023-04-18T22:16:14.195Z,75.30
2023-04-18T22:21:16.717Z,79.50
2023-04-18T22:26:19.151Z,82.30
2023-04-18T22:31:21.697Z,81.90
2023-04-18T22:36:24.988Z,76.50
2023-04-18T22:41:27.431Z,72.40
2023-04-18T22:46:29.984Z,67.70
2023-04-18T22:51:32.608Z,64.90
2023-04-18T22:56:35.678Z,64.00
2023-04-18T23:01:38.228Z,62.30
2023-04-18T23:06:40.713Z,62.10
2023-04-18T23:11:43.142Z,62.10
2023-04-18T23:16:45.653Z,62.30
2023-04-18T23:21:49.714Z,61.80
2023-04-18T23:26:52.343Z,63.00
2023-04-18T23:31:54.814Z,63.60
2023-04-18T23:36:57.453Z,65.50
2023-04-18T23:41:59.976Z,66.50
2023-04-18T23:47:03.609Z,66.30
2023-04-18T23:52:07.206Z,66.70
2023-04-18T23:57:09.736Z,64.00
